sensor_id;sensor_type;location;lat;lon;timestamp;temperature;humidity
9450;DHT22;4763;48.370;10.874;2022-08-19T00:02:23;19.40;99.90
9450;DHT22;4763;48.370;10.874;2022-08-19T00:04:50;19.40;99.90
9450;DHT22;4763;48.370;10.874;2022-08-19T00:07:18;19.40;99.90
9450;DHT22;4763;48.370;10.874;2022-08-19T00:09:45;19.40;99.90
9450;DHT22;4763;48.370;10.874;2022-08-19T00:12:13;19.40;99.90
9450;DHT22;4763;48.370;10.874;2022-08-19T00:14:40;19.40;99.90
9450;DHT22;4763;48.370;10.874;2022-08-19T00:17:08;19.40;99.90
9450;DHT22;4763;48.370;10.874;2022-08-19T00:19:36;19.50;99.90
9450;DHT22;4763;48.370;10.874;2022-08-19T00:22:04;19.50;99.90
9450;DHT22;4763;48.370;10.874;2022-08-19T00:24:31;19.40;99.90
9450;DHT22;4763;48.370;10.874;2022-08-19T00:26:58;19.30;99.90
9450;DHT22;4763;48.370;10.874;2022-08-19T00:29:28;19.30;99.90
9450;DHT22;4763;48.370;10.874;2022-08-19T00:31:56;19.30;99.90
9450;DHT22;4763;48.370;10.874;2022-08-19T00:34:25;19.20;99.90
9450;DHT22;4763;48.370;10.874;2022-08-19T00:36:53;19.20;99.90
9450;DHT22;4763;48.370;10.874;2022-08-19T00:39:20;19.10;99.90
9450;DHT22;4763;48.370;10.874;2022-08-19T00:41:48;19.10;99.90
9450;DHT22;4763;48.370;10.874;2022-08-19T00:44:19;19.00;99.90
9450;DHT22;4763;48.370;10.874;2022-08-19T00:46:49;18.90;99.90
9450;DHT22;4763;48.370;10.874;2022-08-19T00:49:19;18.90;99.90
9450;DHT22;4763;48.370;10.874;2022-08-19T00:51:51;18.80;99.90
9450;DHT22;4763;48.370;10.874;2022-08-19T00:54:19;18.90;99.90
9450;DHT22;4763;48.370;10.874;2022-08-19T00:56:48;18.90;99.90
9450;DHT22;4763;48.370;10.874;2022-08-19T00:59:16;18.80;99.90
9450;DHT22;4763;48.370;10.874;2022-08-19T01:01:47;18.90;99.90
9450;DHT22;4763;48.370;10.874;2022-08-19T01:04:14;18.90;99.90
9450;DHT22;4763;48.370;10.874;2022-08-19T01:06:41;18.90;99.90
9450;DHT22;4763;48.370;10.874;2022-08-19T01:09:09;18.90;99.90
9450;DHT22;4763;48.370;10.874;2022-08-19T01:11:40;18.80;99.90
9450;DHT22;4763;48.370;10.874;2022-08-19T01:14:11;18.90;99.90
9450;DHT22;4763;48.370;10.874;2022-08-19T01:16:39;18.90;99.90
9450;DHT22;4763;48.370;10.874;2022-08-19T01:19:15;18.90;99.90
9450;DHT22;4763;48.370;10.874;2022-08-19T01:21:49;18.80;99.90
9450;DHT22;4763;48.370;10.874;2022-08-19T01:24:19;18.90;99.90
9450;DHT22;4763;48.370;10.874;2022-08-19T01:26:47;18.80;99.90
9450;DHT22;4763;48.370;10.874;2022-08-19T01:29:14;18.80;99.90
9450;DHT22;4763;48.370;10.874;2022-08-19T01:31:41;18.90;99.90
9450;DHT22;4763;48.370;10.874;2022-08-19T01:34:08;18.80;99.90
9450;DHT22;4763;48.370;10.874;2022-08-19T01:36:38;18.90;99.90
9450;DHT22;4763;48.370;10.874;2022-08-19T01:39:10;18.90;99.90
9450;DHT22;4763;48.370;10.874;2022-08-19T01:41:39;18.80;99.90
9450;DHT22;4763;48.370;10.874;2022-08-19T01:44:07;18.80;99.90
9450;DHT22;4763;48.370;10.874;2022-08-19T01:46:35;18.80;99.90
9450;DHT22;4763;48.370;10.874;2022-08-19T01:49:03;18.80;99.90
9450;DHT22;4763;48.370;10.874;2022-08-19T01:51:30;18.80;99.90
9450;DHT22;4763;48.370;10.874;2022-08-19T01:53:57;18.80;99.90
9450;DHT22;4763;48.370;10.874;2022-08-19T01:56:24;18.80;99.90
9450;DHT22;4763;48.370;10.874;2022-08-19T01:58:55;18.80;99.90
9450;DHT22;4763;48.370;10.874;2022-08-19T02:01:24;18.80;99.90
9450;DHT22;4763;48.370;10.874;2022-08-19T02:03:51;18.70;99.90
9450;DHT22;4763;48.370;10.874;2022-08-19T02:06:19;18.70;99.90
9450;DHT22;4763;48.370;10.874;2022-08-19T02:08:46;18.70;99.90
9450;DHT22;4763;48.370;10.874;2022-08-19T02:11:19;18.70;99.90
9450;DHT22;4763;48.370;10.874;2022-08-19T02:13:47;18.70;99.90
9450;DHT22;4763;48.370;10.874;2022-08-19T02:16:16;18.70;99.90
9450;DHT22;4763;48.370;10.874;2022-08-19T02:18:43;18.70;99.90
9450;DHT22;4763;48.370;10.874;2022-08-19T02:21:10;18.70;99.90
9450;DHT22;4763;48.370;10.874;2022-08-19T02:23:38;18.70;99.90
9450;DHT22;4763;48.370;10.874;2022-08-19T02:26:05;18.70;99.90
9450;DHT22;4763;48.370;10.874;2022-08-19T02:28:32;18.70;99.90
9450;DHT22;4763;48.370;10.874;2022-08-19T02:30:59;18.70;99.90
9450;DHT22;4763;48.370;10.874;2022-08-19T02:33:29;18.70;99.90
9450;DHT22;4763;48.370;10.874;2022-08-19T02:35:56;18.60;99.90
9450;DHT22;4763;48.370;10.874;2022-08-19T02:38:23;18.60;99.90
9450;DHT22;4763;48.370;10.874;2022-08-19T02:40:52;18.60;99.90
9450;DHT22;4763;48.370;10.874;2022-08-19T02:43:20;18.50;99.90
9450;DHT22;4763;48.370;10.874;2022-08-19T02:45:48;18.50;99.90
9450;DHT22;4763;48.370;10.874;2022-08-19T02:48:17;18.50;99.90
9450;DHT22;4763;48.370;10.874;2022-08-19T02:50:48;18.50;99.90
9450;DHT22;4763;48.370;10.874;2022-08-19T02:53:17;18.60;99.90
9450;DHT22;4763;48.370;10.874;2022-08-19T02:55:45;18.60;99.90
9450;DHT22;4763;48.370;10.874;2022-08-19T02:58:12;18.60;99.90
9450;DHT22;4763;48.370;10.874;2022-08-19T03:00:44;18.60;99.90
9450;DHT22;4763;48.370;10.874;2022-08-19T03:03:11;18.60;99.90
9450;DHT22;4763;48.370;10.874;2022-08-19T03:05:39;18.50;99.90
9450;DHT22;4763;48.370;10.874;2022-08-19T03:08:08;18.50;99.90
9450;DHT22;4763;48.370;10.874;2022-08-19T03:10:43;18.50;99.90
9450;DHT22;4763;48.370;10.874;2022-08-19T03:13:12;18.50;99.90
9450;DHT22;4763;48.370;10.874;2022-08-19T03:15:40;18.50;99.90
9450;DHT22;4763;48.370;10.874;2022-08-19T03:18:08;18.50;99.90
9450;DHT22;4763;48.370;10.874;2022-08-19T03:20:40;18.50;99.90
9450;DHT22;4763;48.370;10.874;2022-08-19T03:23:08;18.40;99.90
9450;DHT22;4763;48.370;10.874;2022-08-19T03:25:37;18.50;99.90
9450;DHT22;4763;48.370;10.874;2022-08-19T03:28:06;18.50;99.90
9450;DHT22;4763;48.370;10.874;2022-08-19T03:30:33;18.50;99.90
9450;DHT22;4763;48.370;10.874;2022-08-19T03:33:00;18.50;99.90
9450;DHT22;4763;48.370;10.874;2022-08-19T03:35:27;18.50;99.90
9450;DHT22;4763;48.370;10.874;2022-08-19T03:37:54;18.50;99.90
9450;DHT22;4763;48.370;10.874;2022-08-19T03:40:23;18.50;99.90
9450;DHT22;4763;48.370;10.874;2022-08-19T03:42:50;18.50;99.90
9450;DHT22;4763;48.370;10.874;2022-08-19T03:45:17;18.50;99.90
9450;DHT22;4763;48.370;10.874;2022-08-19T03:47:45;18.50;99.90
9450;DHT22;4763;48.370;10.874;2022-08-19T03:50:12;18.50;99.90
9450;DHT22;4763;48.370;10.874;2022-08-19T03:52:38;18.50;99.90
9450;DHT22;4763;48.370;10.874;2022-08-19T03:55:06;18.60;99.90
9450;DHT22;4763;48.370;10.874;2022-08-19T03:57:35;18.50;99.90
9450;DHT22;4763;48.370;10.874;2022-08-19T04:00:04;18.50;99.90
9450;DHT22;4763;48.370;10.874;2022-08-19T04:02:32;18.50;99.90
9450;DHT22;4763;48.370;10.874;2022-08-19T04:04:58;18.50;99.90
9450;DHT22;4763;48.370;10.874;2022-08-19T04:07:25;18.50;99.90
9450;DHT22;4763;48.370;10.874;2022-08-19T04:09:52;18.50;99.90
9450;DHT22;4763;48.370;10.874;2022-08-19T04:12:19;18.40;99.90
9450;DHT22;4763;48.370;10.874;2022-08-19T04:14:47;18.50;99.90
9450;DHT22;4763;48.370;10.874;2022-08-19T04:17:14;18.50;99.90
9450;DHT22;4763;48.370;10.874;2022-08-19T04:19:41;18.50;99.90
9450;DHT22;4763;48.370;10.874;2022-08-19T04:22:08;18.40;99.90
9450;DHT22;4763;48.370;10.874;2022-08-19T04:24:37;18.40;99.90
9450;DHT22;4763;48.370;10.874;2022-08-19T04:27:05;18.40;99.90
9450;DHT22;4763;48.370;10.874;2022-08-19T04:29:32;18.50;99.90
9450;DHT22;4763;48.370;10.874;2022-08-19T04:32:02;18.50;99.90
9450;DHT22;4763;48.370;10.874;2022-08-19T04:34:29;18.50;99.90
9450;DHT22;4763;48.370;10.874;2022-08-19T04:36:57;18.50;99.90
9450;DHT22;4763;48.370;10.874;2022-08-19T04:39:26;18.50;99.90
9450;DHT22;4763;48.370;10.874;2022-08-19T04:42:15;18.50;99.90
9450;DHT22;4763;48.370;10.874;2022-08-19T04:45:00;18.50;99.90
9450;DHT22;4763;48.370;10.874;2022-08-19T04:47:29;18.60;99.90
9450;DHT22;4763;48.370;10.874;2022-08-19T04:49:58;18.50;99.90
9450;DHT22;4763;48.370;10.874;2022-08-19T04:52:25;18.60;99.90
9450;DHT22;4763;48.370;10.874;2022-08-19T04:54:51;18.50;99.90
9450;DHT22;4763;48.370;10.874;2022-08-19T04:57:19;18.50;99.90
9450;DHT22;4763;48.370;10.874;2022-08-19T04:59:46;18.60;99.90
9450;DHT22;4763;48.370;10.874;2022-08-19T05:02:12;18.60;99.90
9450;DHT22;4763;48.370;10.874;2022-08-19T05:04:41;18.60;99.90
9450;DHT22;4763;48.370;10.874;2022-08-19T05:07:08;18.60;99.90
9450;DHT22;4763;48.370;10.874;2022-08-19T05:09:35;18.60;99.90
9450;DHT22;4763;48.370;10.874;2022-08-19T05:12:03;18.60;99.90
9450;DHT22;4763;48.370;10.874;2022-08-19T05:14:31;18.60;99.90
9450;DHT22;4763;48.370;10.874;2022-08-19T05:16:58;18.50;99.90
9450;DHT22;4763;48.370;10.874;2022-08-19T05:19:24;18.50;99.90
9450;DHT22;4763;48.370;10.874;2022-08-19T05:22:10;18.60;99.90
9450;DHT22;4763;48.370;10.874;2022-08-19T05:24:54;18.50;99.90
9450;DHT22;4763;48.370;10.874;2022-08-19T05:27:21;18.60;99.90
9450;DHT22;4763;48.370;10.874;2022-08-19T05:29:48;18.60;99.90
9450;DHT22;4763;48.370;10.874;2022-08-19T05:32:15;18.60;99.90
9450;DHT22;4763;48.370;10.874;2022-08-19T05:34:42;18.60;99.90
9450;DHT22;4763;48.370;10.874;2022-08-19T05:37:10;18.70;99.90
9450;DHT22;4763;48.370;10.874;2022-08-19T05:39:37;18.70;99.90
9450;DHT22;4763;48.370;10.874;2022-08-19T05:42:08;18.70;99.90
9450;DHT22;4763;48.370;10.874;2022-08-19T05:44:37;18.70;99.90
9450;DHT22;4763;48.370;10.874;2022-08-19T05:47:06;18.70;99.90
9450;DHT22;4763;48.370;10.874;2022-08-19T05:49:35;18.70;99.90
9450;DHT22;4763;48.370;10.874;2022-08-19T05:52:04;18.70;99.90
9450;DHT22;4763;48.370;10.874;2022-08-19T05:54:33;18.70;99.90
9450;DHT22;4763;48.370;10.874;2022-08-19T05:57:02;18.70;99.90
9450;DHT22;4763;48.370;10.874;2022-08-19T05:59:29;18.70;99.90
9450;DHT22;4763;48.370;10.874;2022-08-19T06:01:56;18.70;99.90
9450;DHT22;4763;48.370;10.874;2022-08-19T06:04:23;18.80;99.90
9450;DHT22;4763;48.370;10.874;2022-08-19T06:06:52;18.70;99.90
9450;DHT22;4763;48.370;10.874;2022-08-19T06:09:21;18.70;99.90
9450;DHT22;4763;48.370;10.874;2022-08-19T06:11:51;18.70;99.90
9450;DHT22;4763;48.370;10.874;2022-08-19T06:14:21;18.70;99.90
9450;DHT22;4763;48.370;10.874;2022-08-19T06:16:49;18.70;99.90
9450;DHT22;4763;48.370;10.874;2022-08-19T06:19:19;18.70;99.90
9450;DHT22;4763;48.370;10.874;2022-08-19T06:21:48;18.70;99.90
9450;DHT22;4763;48.370;10.874;2022-08-19T06:24:18;18.70;99.90
9450;DHT22;4763;48.370;10.874;2022-08-19T06:26:47;18.70;99.90
9450;DHT22;4763;48.370;10.874;2022-08-19T06:29:17;18.70;99.90
9450;DHT22;4763;48.370;10.874;2022-08-19T06:31:46;18.80;99.90
9450;DHT22;4763;48.370;10.874;2022-08-19T06:34:15;18.70;99.90
9450;DHT22;4763;48.370;10.874;2022-08-19T06:36:45;18.70;99.90
9450;DHT22;4763;48.370;10.874;2022-08-19T06:39:15;18.70;99.90
9450;DHT22;4763;48.370;10.874;2022-08-19T06:41:48;18.70;99.90
9450;DHT22;4763;48.370;10.874;2022-08-19T06:44:17;18.80;99.90
9450;DHT22;4763;48.370;10.874;2022-08-19T06:46:45;18.80;99.90
9450;DHT22;4763;48.370;10.874;2022-08-19T06:49:14;18.90;99.90
9450;DHT22;4763;48.370;10.874;2022-08-19T06:51:42;18.70;99.90
9450;DHT22;4763;48.370;10.874;2022-08-19T06:54:10;18.80;99.90
9450;DHT22;4763;48.370;10.874;2022-08-19T06:56:37;18.80;99.90
9450;DHT22;4763;48.370;10.874;2022-08-19T06:59:06;18.70;99.90
9450;DHT22;4763;48.370;10.874;2022-08-19T07:01:36;18.70;99.90
9450;DHT22;4763;48.370;10.874;2022-08-19T07:04:04;18.80;99.90
9450;DHT22;4763;48.370;10.874;2022-08-19T07:06:31;18.80;99.90
9450;DHT22;4763;48.370;10.874;2022-08-19T07:08:58;18.80;99.90
9450;DHT22;4763;48.370;10.874;2022-08-19T07:11:25;18.80;99.90
9450;DHT22;4763;48.370;10.874;2022-08-19T07:13:52;18.80;99.90
9450;DHT22;4763;48.370;10.874;2022-08-19T07:16:20;18.80;99.90
9450;DHT22;4763;48.370;10.874;2022-08-19T07:18:49;18.90;99.90
9450;DHT22;4763;48.370;10.874;2022-08-19T07:21:19;18.80;99.90
9450;DHT22;4763;48.370;10.874;2022-08-19T07:23:47;18.80;99.90
9450;DHT22;4763;48.370;10.874;2022-08-19T07:26:20;18.80;99.90
9450;DHT22;4763;48.370;10.874;2022-08-19T07:28:48;18.80;99.90
9450;DHT22;4763;48.370;10.874;2022-08-19T07:31:17;18.90;99.90
9450;DHT22;4763;48.370;10.874;2022-08-19T07:33:45;18.80;99.90
9450;DHT22;4763;48.370;10.874;2022-08-19T07:36:17;18.80;99.90
9450;DHT22;4763;48.370;10.874;2022-08-19T07:38:47;18.80;99.90
9450;DHT22;4763;48.370;10.874;2022-08-19T07:41:16;18.90;99.90
9450;DHT22;4763;48.370;10.874;2022-08-19T07:43:44;18.90;99.90
9450;DHT22;4763;48.370;10.874;2022-08-19T07:46:11;18.80;99.90
9450;DHT22;4763;48.370;10.874;2022-08-19T07:48:40;18.80;99.90
9450;DHT22;4763;48.370;10.874;2022-08-19T07:51:09;18.80;99.90
9450;DHT22;4763;48.370;10.874;2022-08-19T07:53:38;18.70;99.90
9450;DHT22;4763;48.370;10.874;2022-08-19T07:59:16;18.70;99.90
9450;DHT22;4763;48.370;10.874;2022-08-19T08:01:44;18.70;99.90
9450;DHT22;4763;48.370;10.874;2022-08-19T08:04:11;18.70;99.90
9450;DHT22;4763;48.370;10.874;2022-08-19T08:06:55;18.70;99.90
9450;DHT22;4763;48.370;10.874;2022-08-19T08:09:43;18.80;99.90
9450;DHT22;4763;48.370;10.874;2022-08-19T08:12:13;18.80;99.90
9450;DHT22;4763;48.370;10.874;2022-08-19T08:14:42;18.70;99.90
9450;DHT22;4763;48.370;10.874;2022-08-19T08:17:10;18.70;99.90
9450;DHT22;4763;48.370;10.874;2022-08-19T08:19:38;18.80;99.90
9450;DHT22;4763;48.370;10.874;2022-08-19T08:22:07;18.70;99.90
9450;DHT22;4763;48.370;10.874;2022-08-19T08:24:55;18.80;99.90
9450;DHT22;4763;48.370;10.874;2022-08-19T08:27:23;18.80;99.90
9450;DHT22;4763;48.370;10.874;2022-08-19T08:29:51;18.80;99.90
9450;DHT22;4763;48.370;10.874;2022-08-19T08:32:18;18.80;99.90
9450;DHT22;4763;48.370;10.874;2022-08-19T08:34:45;18.80;99.90
9450;DHT22;4763;48.370;10.874;2022-08-19T08:37:11;18.80;99.90
9450;DHT22;4763;48.370;10.874;2022-08-19T08:39:39;18.80;99.90
9450;DHT22;4763;48.370;10.874;2022-08-19T08:42:14;18.80;99.90
9450;DHT22;4763;48.370;10.874;2022-08-19T08:44:48;18.70;99.90
9450;DHT22;4763;48.370;10.874;2022-08-19T08:47:20;18.70;99.90
9450;DHT22;4763;48.370;10.874;2022-08-19T08:49:50;18.70;99.90
9450;DHT22;4763;48.370;10.874;2022-08-19T08:52:21;18.80;99.90
9450;DHT22;4763;48.370;10.874;2022-08-19T08:54:51;18.70;99.90
9450;DHT22;4763;48.370;10.874;2022-08-19T08:57:26;18.80;99.90
9450;DHT22;4763;48.370;10.874;2022-08-19T08:59:56;18.80;99.90
9450;DHT22;4763;48.370;10.874;2022-08-19T09:02:24;18.90;99.90
9450;DHT22;4763;48.370;10.874;2022-08-19T09:04:51;18.80;99.90
9450;DHT22;4763;48.370;10.874;2022-08-19T09:07:29;18.80;99.90
9450;DHT22;4763;48.370;10.874;2022-08-19T09:10:04;18.90;99.90
9450;DHT22;4763;48.370;10.874;2022-08-19T09:12:42;18.70;99.90
9450;DHT22;4763;48.370;10.874;2022-08-19T09:15:14;18.80;99.90
9450;DHT22;4763;48.370;10.874;2022-08-19T09:17:42;18.80;99.90
9450;DHT22;4763;48.370;10.874;2022-08-19T09:20:18;18.90;99.90
9450;DHT22;4763;48.370;10.874;2022-08-19T09:22:45;18.90;99.90
9450;DHT22;4763;48.370;10.874;2022-08-19T09:25:16;18.80;99.90
9450;DHT22;4763;48.370;10.874;2022-08-19T09:27:45;18.90;99.90
9450;DHT22;4763;48.370;10.874;2022-08-19T09:30:14;18.90;99.90
9450;DHT22;4763;48.370;10.874;2022-08-19T09:32:42;18.80;99.90
9450;DHT22;4763;48.370;10.874;2022-08-19T09:35:10;18.90;99.90
9450;DHT22;4763;48.370;10.874;2022-08-19T09:37:36;18.80;99.90
9450;DHT22;4763;48.370;10.874;2022-08-19T09:40:04;18.80;99.90
9450;DHT22;4763;48.370;10.874;2022-08-19T09:42:32;18.80;99.90
9450;DHT22;4763;48.370;10.874;2022-08-19T09:45:02;18.80;99.90
9450;DHT22;4763;48.370;10.874;2022-08-19T09:47:29;18.90;99.90
9450;DHT22;4763;48.370;10.874;2022-08-19T09:49:57;18.90;99.90
9450;DHT22;4763;48.370;10.874;2022-08-19T09:52:24;18.90;99.90
9450;DHT22;4763;48.370;10.874;2022-08-19T09:54:52;18.90;99.90
9450;DHT22;4763;48.370;10.874;2022-08-19T09:57:19;18.80;99.90
9450;DHT22;4763;48.370;10.874;2022-08-19T09:59:46;18.90;99.90
9450;DHT22;4763;48.370;10.874;2022-08-19T10:02:15;18.90;99.90
9450;DHT22;4763;48.370;10.874;2022-08-19T10:04:41;18.90;99.90
9450;DHT22;4763;48.370;10.874;2022-08-19T10:07:26;18.90;99.90
9450;DHT22;4763;48.370;10.874;2022-08-19T10:09:52;18.90;99.90
9450;DHT22;4763;48.370;10.874;2022-08-19T10:12:19;18.90;99.90
9450;DHT22;4763;48.370;10.874;2022-08-19T10:14:47;18.90;99.90
9450;DHT22;4763;48.370;10.874;2022-08-19T10:17:15;18.80;99.90
9450;DHT22;4763;48.370;10.874;2022-08-19T10:19:44;18.80;99.90
9450;DHT22;4763;48.370;10.874;2022-08-19T10:22:11;18.80;99.90
9450;DHT22;4763;48.370;10.874;2022-08-19T10:24:40;18.80;99.90
9450;DHT22;4763;48.370;10.874;2022-08-19T10:27:06;18.80;99.90
9450;DHT22;4763;48.370;10.874;2022-08-19T10:29:35;18.80;99.90
9450;DHT22;4763;48.370;10.874;2022-08-19T10:32:03;18.80;99.90
9450;DHT22;4763;48.370;10.874;2022-08-19T10:34:33;18.90;99.90
9450;DHT22;4763;48.370;10.874;2022-08-19T10:37:00;18.80;99.90
9450;DHT22;4763;48.370;10.874;2022-08-19T10:39:27;18.80;99.90
9450;DHT22;4763;48.370;10.874;2022-08-19T10:41:55;18.80;99.90
9450;DHT22;4763;48.370;10.874;2022-08-19T10:44:22;18.80;99.90
9450;DHT22;4763;48.370;10.874;2022-08-19T10:46:50;18.90;99.90
9450;DHT22;4763;48.370;10.874;2022-08-19T10:49:18;18.80;99.90
9450;DHT22;4763;48.370;10.874;2022-08-19T10:51:47;18.80;99.90
9450;DHT22;4763;48.370;10.874;2022-08-19T10:54:36;18.80;99.90
9450;DHT22;4763;48.370;10.874;2022-08-19T10:57:20;18.80;99.90
9450;DHT22;4763;48.370;10.874;2022-08-19T10:59:49;18.80;99.90
9450;DHT22;4763;48.370;10.874;2022-08-19T11:02:16;18.80;99.90
9450;DHT22;4763;48.370;10.874;2022-08-19T11:04:43;18.70;99.90
9450;DHT22;4763;48.370;10.874;2022-08-19T11:07:11;18.60;99.90
9450;DHT22;4763;48.370;10.874;2022-08-19T11:09:39;18.60;99.90
9450;DHT22;4763;48.370;10.874;2022-08-19T11:12:08;18.50;99.90
9450;DHT22;4763;48.370;10.874;2022-08-19T11:14:36;18.50;99.90
9450;DHT22;4763;48.370;10.874;2022-08-19T11:17:03;18.50;99.90
9450;DHT22;4763;48.370;10.874;2022-08-19T11:19:30;18.50;99.90
9450;DHT22;4763;48.370;10.874;2022-08-19T11:21:57;18.50;99.90
9450;DHT22;4763;48.370;10.874;2022-08-19T11:24:28;18.40;99.90
9450;DHT22;4763;48.370;10.874;2022-08-19T11:27:04;18.50;99.90
9450;DHT22;4763;48.370;10.874;2022-08-19T11:29:32;18.40;99.90
9450;DHT22;4763;48.370;10.874;2022-08-19T11:32:02;18.40;99.90
9450;DHT22;4763;48.370;10.874;2022-08-19T11:34:29;18.40;99.90
9450;DHT22;4763;48.370;10.874;2022-08-19T11:36:57;18.40;99.90
9450;DHT22;4763;48.370;10.874;2022-08-19T11:39:26;18.40;99.90
9450;DHT22;4763;48.370;10.874;2022-08-19T11:41:55;18.50;99.90
9450;DHT22;4763;48.370;10.874;2022-08-19T11:44:24;18.40;99.90
9450;DHT22;4763;48.370;10.874;2022-08-19T11:46:51;18.30;99.90
9450;DHT22;4763;48.370;10.874;2022-08-19T11:49:19;18.40;99.90
9450;DHT22;4763;48.370;10.874;2022-08-19T11:51:47;18.40;99.90
9450;DHT22;4763;48.370;10.874;2022-08-19T11:54:16;18.30;99.90
9450;DHT22;4763;48.370;10.874;2022-08-19T11:56:43;18.30;99.90
9450;DHT22;4763;48.370;10.874;2022-08-19T11:59:12;18.30;99.90
9450;DHT22;4763;48.370;10.874;2022-08-19T12:01:39;18.30;99.90
9450;DHT22;4763;48.370;10.874;2022-08-19T12:04:08;18.30;99.90
9450;DHT22;4763;48.370;10.874;2022-08-19T12:06:38;18.20;99.90
9450;DHT22;4763;48.370;10.874;2022-08-19T12:09:07;18.30;99.90
9450;DHT22;4763;48.370;10.874;2022-08-19T12:11:35;18.20;99.90
9450;DHT22;4763;48.370;10.874;2022-08-19T12:14:03;18.20;99.90
9450;DHT22;4763;48.370;10.874;2022-08-19T12:16:33;18.30;99.90
9450;DHT22;4763;48.370;10.874;2022-08-19T12:19:00;18.30;99.90
9450;DHT22;4763;48.370;10.874;2022-08-19T12:21:31;18.30;99.90
9450;DHT22;4763;48.370;10.874;2022-08-19T12:23:59;18.30;99.90
9450;DHT22;4763;48.370;10.874;2022-08-19T12:26:28;18.30;99.90
9450;DHT22;4763;48.370;10.874;2022-08-19T12:28:57;18.30;99.90
9450;DHT22;4763;48.370;10.874;2022-08-19T12:31:24;18.40;99.90
9450;DHT22;4763;48.370;10.874;2022-08-19T12:33:53;18.40;99.90
9450;DHT22;4763;48.370;10.874;2022-08-19T12:36:20;18.50;99.90
9450;DHT22;4763;48.370;10.874;2022-08-19T12:38:48;18.50;99.90
9450;DHT22;4763;48.370;10.874;2022-08-19T12:41:16;18.50;99.90
9450;DHT22;4763;48.370;10.874;2022-08-19T12:43:44;18.50;99.90
9450;DHT22;4763;48.370;10.874;2022-08-19T12:46:11;18.60;99.90
9450;DHT22;4763;48.370;10.874;2022-08-19T12:48:39;18.60;99.90
9450;DHT22;4763;48.370;10.874;2022-08-19T12:51:11;18.70;99.90
9450;DHT22;4763;48.370;10.874;2022-08-19T12:53:38;18.70;99.90
9450;DHT22;4763;48.370;10.874;2022-08-19T12:56:06;18.80;99.90
9450;DHT22;4763;48.370;10.874;2022-08-19T12:58:33;18.80;99.90
9450;DHT22;4763;48.370;10.874;2022-08-19T13:01:06;18.90;99.90
9450;DHT22;4763;48.370;10.874;2022-08-19T13:03:33;18.90;99.90
9450;DHT22;4763;48.370;10.874;2022-08-19T13:06:00;19.10;99.90
9450;DHT22;4763;48.370;10.874;2022-08-19T13:08:28;19.10;99.90
9450;DHT22;4763;48.370;10.874;2022-08-19T13:10:55;19.20;99.90
9450;DHT22;4763;48.370;10.874;2022-08-19T13:13:24;19.30;99.90
9450;DHT22;4763;48.370;10.874;2022-08-19T13:15:51;19.30;99.90
9450;DHT22;4763;48.370;10.874;2022-08-19T13:18:18;19.30;99.90
9450;DHT22;4763;48.370;10.874;2022-08-19T13:20:45;19.60;99.90
9450;DHT22;4763;48.370;10.874;2022-08-19T13:23:12;19.50;99.90
9450;DHT22;4763;48.370;10.874;2022-08-19T13:25:40;19.60;99.90
9450;DHT22;4763;48.370;10.874;2022-08-19T13:28:07;19.50;99.90
9450;DHT22;4763;48.370;10.874;2022-08-19T13:30:34;19.40;99.90
9450;DHT22;4763;48.370;10.874;2022-08-19T13:33:18;19.40;99.90
9450;DHT22;4763;48.370;10.874;2022-08-19T13:35:47;19.40;99.90
9450;DHT22;4763;48.370;10.874;2022-08-19T13:38:16;19.40;99.90
9450;DHT22;4763;48.370;10.874;2022-08-19T13:40:45;19.50;99.90
9450;DHT22;4763;48.370;10.874;2022-08-19T13:43:12;19.50;99.90
9450;DHT22;4763;48.370;10.874;2022-08-19T13:45:39;19.40;99.90
9450;DHT22;4763;48.370;10.874;2022-08-19T13:48:07;19.40;99.90
9450;DHT22;4763;48.370;10.874;2022-08-19T13:50:38;19.50;99.90
9450;DHT22;4763;48.370;10.874;2022-08-19T13:53:06;19.40;99.90
9450;DHT22;4763;48.370;10.874;2022-08-19T13:55:33;19.40;99.90
9450;DHT22;4763;48.370;10.874;2022-08-19T13:58:02;19.40;99.90
9450;DHT22;4763;48.370;10.874;2022-08-19T14:00:32;19.40;99.90
9450;DHT22;4763;48.370;10.874;2022-08-19T14:02:59;19.40;99.90
9450;DHT22;4763;48.370;10.874;2022-08-19T14:05:28;19.40;99.90
9450;DHT22;4763;48.370;10.874;2022-08-19T14:07:56;19.30;99.90
9450;DHT22;4763;48.370;10.874;2022-08-19T14:10:24;19.30;99.90
9450;DHT22;4763;48.370;10.874;2022-08-19T14:12:53;19.30;99.90
9450;DHT22;4763;48.370;10.874;2022-08-19T14:15:22;19.20;99.90
9450;DHT22;4763;48.370;10.874;2022-08-19T14:17:49;19.20;99.90
9450;DHT22;4763;48.370;10.874;2022-08-19T14:20:17;19.20;99.90
9450;DHT22;4763;48.370;10.874;2022-08-19T14:22:44;19.10;99.90
9450;DHT22;4763;48.370;10.874;2022-08-19T14:25:13;19.00;99.90
9450;DHT22;4763;48.370;10.874;2022-08-19T14:27:41;19.00;99.90
9450;DHT22;4763;48.370;10.874;2022-08-19T14:30:11;19.00;99.90
9450;DHT22;4763;48.370;10.874;2022-08-19T14:32:41;19.00;99.90
9450;DHT22;4763;48.370;10.874;2022-08-19T14:35:09;19.00;99.90
9450;DHT22;4763;48.370;10.874;2022-08-19T14:37:38;19.10;99.90
9450;DHT22;4763;48.370;10.874;2022-08-19T14:40:06;19.00;99.90
9450;DHT22;4763;48.370;10.874;2022-08-19T14:42:33;19.00;99.90
9450;DHT22;4763;48.370;10.874;2022-08-19T14:45:01;19.10;99.90
9450;DHT22;4763;48.370;10.874;2022-08-19T14:47:27;19.10;99.90
9450;DHT22;4763;48.370;10.874;2022-08-19T14:49:55;19.10;99.90
9450;DHT22;4763;48.370;10.874;2022-08-19T14:52:22;19.10;99.90
9450;DHT22;4763;48.370;10.874;2022-08-19T14:54:50;19.10;99.90
9450;DHT22;4763;48.370;10.874;2022-08-19T14:57:17;19.20;99.90
9450;DHT22;4763;48.370;10.874;2022-08-19T14:59:44;19.20;99.90
9450;DHT22;4763;48.370;10.874;2022-08-19T15:02:11;19.10;99.90
9450;DHT22;4763;48.370;10.874;2022-08-19T15:04:38;19.10;99.90
9450;DHT22;4763;48.370;10.874;2022-08-19T15:07:06;19.10;99.90
9450;DHT22;4763;48.370;10.874;2022-08-19T15:09:34;19.10;99.90
9450;DHT22;4763;48.370;10.874;2022-08-19T15:12:02;19.00;99.90
9450;DHT22;4763;48.370;10.874;2022-08-19T15:14:30;19.00;99.90
9450;DHT22;4763;48.370;10.874;2022-08-19T15:17:01;19.00;99.90
9450;DHT22;4763;48.370;10.874;2022-08-19T15:19:29;19.00;99.90
9450;DHT22;4763;48.370;10.874;2022-08-19T15:21:55;18.90;99.90
9450;DHT22;4763;48.370;10.874;2022-08-19T15:24:24;18.90;99.90
9450;DHT22;4763;48.370;10.874;2022-08-19T15:29:18;18.90;99.90
9450;DHT22;4763;48.370;10.874;2022-08-19T15:31:45;18.80;99.90
9450;DHT22;4763;48.370;10.874;2022-08-19T15:34:12;18.80;99.90
9450;DHT22;4763;48.370;10.874;2022-08-19T15:36:39;18.80;99.90
9450;DHT22;4763;48.370;10.874;2022-08-19T15:39:06;18.80;99.90
9450;DHT22;4763;48.370;10.874;2022-08-19T15:41:36;18.80;99.90
9450;DHT22;4763;48.370;10.874;2022-08-19T15:44:07;18.80;99.90
9450;DHT22;4763;48.370;10.874;2022-08-19T15:46:35;18.70;99.90
9450;DHT22;4763;48.370;10.874;2022-08-19T15:49:04;18.70;99.90
9450;DHT22;4763;48.370;10.874;2022-08-19T15:51:32;18.70;99.90
9450;DHT22;4763;48.370;10.874;2022-08-19T15:54:03;18.70;99.90
9450;DHT22;4763;48.370;10.874;2022-08-19T15:56:31;18.70;99.90
9450;DHT22;4763;48.370;10.874;2022-08-19T15:59:33;18.70;99.90
9450;DHT22;4763;48.370;10.874;2022-08-19T16:02:20;18.70;99.90